Aquarius Voyager — C6UC3 — position and weather

sailwx.info

Track history (hours):
 
Tides and Currents Weather Stations Pressure Air Temp Water Temp Dewpoint Dewpoint Depression Visibility Wind Speed Wind Dir Waves Ship Positions

Aquarius Voyager

Last reported at 2018-Jun-23 05:16 UTC. Time now 2018-Jun-25 19:15 UTC.
Position N 01°25' E 103°11'.

Type: Tanker. MMSI: 311813000.

Date/timePositionNaut miles runAvg speedWind from/ knotsBaromVisibWave heightAir tempDewpointWater temp
2018-Jun-23 05:16N 01°25' E 103°11'917.1
2018-Jun-23 04:46N 01°19' E 103°17'517.4
2018-Jun-23 04:30N 01°17' E 103°21'816.6
2018-Jun-23 04:00N 01°13' E 103°29'714.9
2018-Jun-23 03:30N 01°12' E 103°36'4 7.4
2018-Jun-23 03:00N 01°11' E 103°40'3 6.0
2018-Jun-23 02:30N 01°09' E 103°42'510.9
2018-Jun-23 02:01N 01°10' E 103°47'510.6
2018-Jun-23 01:30N 01°12' E 103°52'610.8
2018-Jun-23 00:59N 01°15' E 103°57'814.8
2018-Jun-23 00:29N 01°16' E 104°05'713.8
2018-Jun-22 23:59N 01°17' E 104°11'4 9.0
2018-Jun-22 23:30N 01°18' E 104°16'611.2
2018-Jun-22 22:58N 01°20' E 104°21'612.4
2018-Jun-22 22:29N 01°24' E 104°26'  
Track history (hours):
 
Tides and Currents Weather Stations Pressure Air Temp Water Temp Dewpoint Dewpoint Depression Visibility Wind Speed Wind Dir Waves Ship Positions

Aquarius Voyager

Last reported at 2018-Jun-23 05:16 UTC. Time now 2018-Jun-25 19:15 UTC.
Position N 01°25' E 103°11'.

Type: Tanker. MMSI: 311813000.

Date/timePositionNaut miles runAvg speedWind from/ knotsBaromVisibWave heightAir tempDewpointWater temp
2018-Jun-23 05:16N 01°25' E 103°11'917.1
2018-Jun-23 04:46N 01°19' E 103°17'517.4
2018-Jun-23 04:30N 01°17' E 103°21'816.6
2018-Jun-23 04:00N 01°13' E 103°29'714.9
2018-Jun-23 03:30N 01°12' E 103°36'4 7.4
2018-Jun-23 03:00N 01°11' E 103°40'3 6.0
2018-Jun-23 02:30N 01°09' E 103°42'510.9
2018-Jun-23 02:01N 01°10' E 103°47'510.6
2018-Jun-23 01:30N 01°12' E 103°52'610.8
2018-Jun-23 00:59N 01°15' E 103°57'814.8
2018-Jun-23 00:29N 01°16' E 104°05'713.8
2018-Jun-22 23:59N 01°17' E 104°11'4 9.0
2018-Jun-22 23:30N 01°18' E 104°16'611.2
2018-Jun-22 22:58N 01°20' E 104°21'612.4
2018-Jun-22 22:29N 01°24' E 104°26'  

Dump ship's entire track history